Strona główna
METAR-TAF:

METAR-TAF

Lotnisko :

Port lotniczy Kununurra

Kununurra, Australia

Szerokość geograficzna: 15-46S, Długość geograficzna: 128-42E, wysokość: 44 m

Aktualna obserwacja pogody

Raport powstał 46 minut temu, godzina 10:00 UTC
Wiatr 6 kt od wschodnio-południowy wschód
Temperatura 26°C
Wilgotność 32%
Ciśnienie 1014 hPa
Widzialność 10 km lub więcej

METAR: YPKU 181000Z AUTO 12006KT 9999 // NCD 26/08 Q1014

czas: 18:46 (10:46 UTC)

Prognoza

Raport powstał 4 godziny i 44 minut temu, godzina 06:02 UTC
Prognoza ważna od 18 godzina 08 UTC do 18 godzina 20 UTC
Wiatr 7 kt od wschód
Widzialność 10 km lub więcej
Brak chmur poniżej 1500 m i brak chmur cumulonimbus

TAF: YPKU 180602Z 1808/1820 10007KT CAVOK

Obserwacja i prognoza pogody dla ponad 4000 lotnisk (raport METAR i TAF).

Dostępne stacje oznaczono żółtymi i czerwonymi punktami na mapie.

Najedź kursorem aby zobaczyć nazwę stacji.

Kliknij aby zobaczyć obserwacje i prognozy pogody.

Aby zmienić mapę: kliknij na zielony przycisk z czarnym krzyżykiem, aby powiększyć; na zielony przycisk z myślnikiem, aby pomniejszyć; na zielone strzałki, aby przejść do map sąsiednich.


METAR-TAF: